메인 페이지
METAR-TAF:

METAR-TAF

공항 :

매콤, 미시시피, 미국

위도: 31-10-42N, 경도: 090-28-19W, 고도: 126m

현재 날씨관측

예보는 59분 전, 17:53시(UTC)에 발표되었습니다.
여러 방향의 바람 4kt
온도 13°C
습도 94%
기압 1014 hPa
시정: 16.1km
고도 500ft 상공 흐림

METAR: KMCB 121753Z AUTO VRB04KT 10SM OVC005 13/12 A2995 RMK AO2 LTG DSNT ALQDS RAE18 CIG 004V009 SLP139 P0001 60045 T01330117 10150 20133 50001

시각: 12:52 (18:52 UTC)

예보

예보는 1 시간 9분 전, 17:43시(UTC)에 발표되었습니다.
예보 대상 시간: 12일 18시부터 13일 18시까지 (UTC)
북북서8kt
시정: 9.7km
고도 600ft 상공 구름 많음
고도 1200ft 상공 흐림
박무
일시적
12일 18시부터 12일 21시까지 (UTC)
시정: 4.8km
고도 1200ft 상공 구름 많음
약한소나기
12일 2100시부터 (UTC)
북북서7kt
시정: 10km
고도 800ft 상공 구름 많음
고도 6000ft 상공 흐림
13일 0300시부터 (UTC)
8kt
시정: 9.7km
고도 700ft 상공 흐림
약한비
13일 1200시부터 (UTC)
10kt
시정: 10km
고도 800ft 상공 구름 많음
고도 14000ft 상공 흐림
확률 30%
13일 12시부터 13일 18시까지 (UTC)
시정: 6.4km
고도 500ft 상공 흐림
약한소나기

TAF: KMCB 121743Z 1218/1318 33008KT 6SM BR BKN006 OVC012 TEMPO 1218/1221 3SM -SHRA BKN012 FM122100 33007KT P6SM BKN008 OVC060 FM130300 01008KT 6SM -RA OVC007 FM131200 36010KT P6SM BKN008 OVC140 PROB30 1312/1318 4SM -SHRA OVC005

4,000개 이상의 공항 관측 자료 및 예보 (METAR 및 TAF 보고).

지도상에서 검색 가능한 기상관측소가 노란 점과 빨간 점으로 표시되어 있습니다.

기상관측소 명을 보려면 표시 위로 마우스를 이동하세요.

날씨 관측과 예보를 보려면 클릭하세요.

지도 변경 : 확대하려면 엑스 표시가 있는 녹색 버튼, 축소하려면 빼기 표시가 있는 녹색 버튼, 다음 페이지의 지도를 보려면 녹색 화살표를 클릭하세요.


METAR-TAF: